CES5371 ZSSS-ZGHA
Flight info
| Callsign | CES5371 |
|---|---|
| Flight time | 1h 26m |
| Altitude | 32100 |
| Route | NXD71D NXD W131 AKDIM A470 SAGNU W132 OREXA H165 DALEP DAL1X |
| Aircraft | A320/M-SDE3FGHIRWY/LB1 |
Departure
| Time | 2026-05-07 13:40 |
|---|---|
| Airport | Shanghai Hongqiao International Airport (ZSSS) |
Arrival
| Time | 2026-05-07 15:06 |
|---|---|
| Airport | Changsha Huanghua International Airport (ZGHA) |
| Time | Latitude | Longitude | Altitude | Speed | Heading |
|---|---|---|---|---|---|
| 2026-05-07 13:09 | 31.19955 | 121.32841 | 19 ft | 0 kts | 237° |
| 2026-05-07 13:30 | 31.19961 | 121.32852 | 19 ft | 3 kts | 238° |
| 2026-05-07 13:30 | 31.19972 | 121.32872 | 20 ft | 3 kts | 239° |
| 2026-05-07 13:30 | 31.19982 | 121.32893 | 21 ft | 3 kts | 239° |
| 2026-05-07 13:30 | 31.19993 | 121.32913 | 21 ft | 3 kts | 238° |
| 2026-05-07 13:31 | 31.20004 | 121.32933 | 22 ft | 3 kts | 234° |
| 2026-05-07 13:31 | 31.20016 | 121.32951 | 21 ft | 3 kts | 218° |
| 2026-05-07 13:31 | 31.20031 | 121.32960 | 21 ft | 2 kts | 178° |
| 2026-05-07 13:31 | 31.20032 | 121.32960 | 21 ft | 0 kts | 177° |
| 2026-05-07 13:33 | 31.20024 | 121.32961 | 20 ft | 3 kts | 177° |
| 2026-05-07 13:34 | 31.19999 | 121.32962 | 21 ft | 5 kts | 177° |
| 2026-05-07 13:34 | 31.19913 | 121.32990 | 19 ft | 8 kts | 133° |
| 2026-05-07 13:34 | 31.19867 | 121.33044 | 19 ft | 10 kts | 145° |
| 2026-05-07 13:35 | 31.19796 | 121.33056 | 19 ft | 11 kts | 178° |
| 2026-05-07 13:35 | 31.19711 | 121.33060 | 19 ft | 13 kts | 177° |
| 2026-05-07 13:35 | 31.19611 | 121.33066 | 19 ft | 15 kts | 177° |
| 2026-05-07 13:35 | 31.19502 | 121.33072 | 19 ft | 17 kts | 178° |
| 2026-05-07 13:36 | 31.19377 | 121.33078 | 18 ft | 19 kts | 177° |
| 2026-05-07 13:36 | 31.19240 | 121.33087 | 19 ft | 20 kts | 177° |
| 2026-05-07 13:36 | 31.19093 | 121.33094 | 19 ft | 22 kts | 178° |
| 2026-05-07 13:36 | 31.18934 | 121.33103 | 19 ft | 24 kts | 177° |
| 2026-05-07 13:37 | 31.18764 | 121.33112 | 20 ft | 25 kts | 177° |
| 2026-05-07 13:37 | 31.18630 | 121.33119 | 20 ft | 17 kts | 177° |
| 2026-05-07 13:37 | 31.18508 | 121.33126 | 19 ft | 18 kts | 177° |
| 2026-05-07 13:37 | 31.18380 | 121.33133 | 19 ft | 12 kts | 177° |
| 2026-05-07 13:38 | 31.18342 | 121.33174 | 21 ft | 9 kts | 97° |
| 2026-05-07 13:38 | 31.18345 | 121.33258 | 19 ft | 12 kts | 86° |
| 2026-05-07 13:38 | 31.18356 | 121.33328 | 19 ft | 5 kts | 40° |
| 2026-05-07 13:38 | 31.18391 | 121.33324 | 20 ft | 6 kts | 353° |
| 2026-05-07 13:39 | 31.18523 | 121.33317 | 21 ft | 47 kts | 358° |
| 2026-05-07 13:39 | 31.19067 | 121.33286 | 19 ft | 106 kts | 357° |
| 2026-05-07 13:39 | 31.19971 | 121.33238 | 20 ft | 149 kts | 357° |
| 2026-05-07 13:39 | 31.21033 | 121.33172 | 474 ft | 152 kts | 0° |
| 2026-05-07 13:40 | 31.22088 | 121.33004 | 1073 ft | 158 kts | 339° |
| 2026-05-07 13:40 | 31.22864 | 121.32047 | 1716 ft | 169 kts | 311° |
| 2026-05-07 13:40 | 31.23492 | 121.30869 | 2314 ft | 169 kts | 311° |
| 2026-05-07 13:40 | 31.24102 | 121.29699 | 2865 ft | 168 kts | 310° |
| 2026-05-07 13:41 | 31.24712 | 121.28542 | 3330 ft | 175 kts | 308° |
| 2026-05-07 13:41 | 31.25400 | 121.27263 | 3536 ft | 197 kts | 308° |
| 2026-05-07 13:41 | 31.26180 | 121.25823 | 3790 ft | 221 kts | 306° |
| 2026-05-07 13:41 | 31.27014 | 121.24276 | 4482 ft | 227 kts | 305° |
| 2026-05-07 13:42 | 31.27681 | 121.22606 | 4807 ft | 229 kts | 280° |
| 2026-05-07 13:42 | 31.27416 | 121.20724 | 4896 ft | 254 kts | 248° |
| 2026-05-07 13:42 | 31.26461 | 121.18886 | 5441 ft | 270 kts | 236° |
| 2026-05-07 13:42 | 31.25302 | 121.17170 | 6435 ft | 268 kts | 233° |
| 2026-05-07 13:43 | 31.24114 | 121.15501 | 7380 ft | 267 kts | 232° |
| 2026-05-07 13:43 | 31.22867 | 121.13859 | 8149 ft | 274 kts | 224° |
| 2026-05-07 13:43 | 31.21247 | 121.12637 | 8956 ft | 283 kts | 207° |
| 2026-05-07 13:43 | 31.19330 | 121.12008 | 9743 ft | 292 kts | 189° |
| 2026-05-07 13:44 | 31.17268 | 121.12004 | 10378 ft | 303 kts | 181° |
| 2026-05-07 13:44 | 31.15081 | 121.12116 | 10593 ft | 326 kts | 180° |
| 2026-05-07 13:44 | 31.12745 | 121.12212 | 10855 ft | 343 kts | 185° |
| 2026-05-07 13:44 | 31.10393 | 121.11738 | 11393 ft | 344 kts | 202° |
| 2026-05-07 13:45 | 31.08270 | 121.10476 | 12025 ft | 343 kts | 219° |
| 2026-05-07 13:45 | 31.06577 | 121.08550 | 12682 ft | 340 kts | 236° |
| 2026-05-07 13:45 | 31.05451 | 121.06140 | 13339 ft | 339 kts | 252° |
| 2026-05-07 13:45 | 31.04779 | 121.03508 | 13995 ft | 340 kts | 256° |
| 2026-05-07 13:46 | 31.04126 | 121.00847 | 14610 ft | 342 kts | 256° |
| 2026-05-07 13:46 | 31.03470 | 120.98183 | 15206 ft | 343 kts | 256° |
| 2026-05-07 13:46 | 31.02808 | 120.95499 | 15804 ft | 345 kts | 256° |
| 2026-05-07 13:46 | 31.02140 | 120.92800 | 16345 ft | 348 kts | 256° |
| 2026-05-07 13:47 | 31.01462 | 120.90081 | 16913 ft | 350 kts | 255° |
| 2026-05-07 13:47 | 31.00781 | 120.87351 | 17490 ft | 352 kts | 255° |
| 2026-05-07 13:47 | 31.00098 | 120.84603 | 18052 ft | 354 kts | 255° |
| 2026-05-07 13:47 | 30.99412 | 120.81846 | 18607 ft | 355 kts | 255° |
| 2026-05-07 13:48 | 30.98721 | 120.79074 | 19104 ft | 357 kts | 255° |
| 2026-05-07 13:48 | 30.98026 | 120.76293 | 19594 ft | 359 kts | 255° |
| 2026-05-07 13:48 | 30.97327 | 120.73493 | 20074 ft | 361 kts | 255° |
| 2026-05-07 13:48 | 30.96623 | 120.70676 | 20564 ft | 363 kts | 255° |
| 2026-05-07 13:49 | 30.95924 | 120.67883 | 21034 ft | 365 kts | 256° |
| 2026-05-07 13:49 | 30.95213 | 120.65034 | 21505 ft | 367 kts | 256° |
| 2026-05-07 13:49 | 30.94500 | 120.62171 | 21958 ft | 369 kts | 256° |
| 2026-05-07 13:49 | 30.93779 | 120.59296 | 22398 ft | 371 kts | 256° |
| 2026-05-07 13:50 | 30.93050 | 120.56408 | 22841 ft | 373 kts | 256° |
| 2026-05-07 13:50 | 30.92315 | 120.53500 | 23282 ft | 375 kts | 256° |
| 2026-05-07 13:50 | 30.91577 | 120.50579 | 23707 ft | 377 kts | 256° |
| 2026-05-07 13:50 | 30.90831 | 120.47644 | 24058 ft | 379 kts | 254° |
| 2026-05-07 13:51 | 30.89770 | 120.44816 | 24413 ft | 385 kts | 243° |
| 2026-05-07 13:51 | 30.88202 | 120.42262 | 24769 ft | 392 kts | 233° |
| 2026-05-07 13:51 | 30.86164 | 120.40101 | 25103 ft | 402 kts | 222° |
| 2026-05-07 13:51 | 30.83874 | 120.38212 | 25463 ft | 404 kts | 221° |
| 2026-05-07 13:52 | 30.81569 | 120.36322 | 25818 ft | 406 kts | 221° |
| 2026-05-07 13:52 | 30.79255 | 120.34425 | 26162 ft | 408 kts | 221° |
| 2026-05-07 13:52 | 30.76931 | 120.32516 | 26488 ft | 410 kts | 221° |
| 2026-05-07 13:52 | 30.74600 | 120.30599 | 26819 ft | 412 kts | 222° |
| 2026-05-07 13:53 | 30.72255 | 120.28671 | 27170 ft | 414 kts | 222° |
| 2026-05-07 13:53 | 30.69899 | 120.26732 | 27492 ft | 416 kts | 222° |
| 2026-05-07 13:53 | 30.67528 | 120.24783 | 27807 ft | 418 kts | 222° |
| 2026-05-07 13:53 | 30.65144 | 120.22827 | 28116 ft | 421 kts | 222° |
| 2026-05-07 13:54 | 30.62741 | 120.20857 | 28428 ft | 424 kts | 222° |
| 2026-05-07 13:54 | 30.60327 | 120.18880 | 28752 ft | 426 kts | 222° |
| 2026-05-07 13:54 | 30.57895 | 120.16892 | 29073 ft | 429 kts | 222° |
| 2026-05-07 13:54 | 30.55452 | 120.14894 | 29394 ft | 431 kts | 222° |
| 2026-05-07 13:55 | 30.53003 | 120.12891 | 29836 ft | 430 kts | 222° |
| 2026-05-07 13:55 | 30.50563 | 120.10896 | 30292 ft | 429 kts | 222° |
| 2026-05-07 13:55 | 30.48130 | 120.08913 | 30719 ft | 427 kts | 222° |
| 2026-05-07 13:55 | 30.45704 | 120.06941 | 31133 ft | 425 kts | 222° |
| 2026-05-07 13:56 | 30.43270 | 120.05012 | 31599 ft | 425 kts | 218° |
| 2026-05-07 13:56 | 30.40710 | 120.03289 | 32036 ft | 425 kts | 217° |
| 2026-05-07 13:56 | 30.38191 | 120.01606 | 32151 ft | 423 kts | 218° |
| 2026-05-07 13:57 | 30.33096 | 119.98214 | 32190 ft | 422 kts | 217° |
| 2026-05-07 13:57 | 30.28008 | 119.94827 | 32185 ft | 422 kts | 218° |
| 2026-05-07 13:58 | 30.22921 | 119.91438 | 32189 ft | 422 kts | 217° |
| 2026-05-07 13:58 | 30.17830 | 119.88055 | 32186 ft | 422 kts | 217° |
| 2026-05-07 13:59 | 30.12735 | 119.84683 | 32187 ft | 422 kts | 217° |
| 2026-05-07 13:59 | 30.07642 | 119.81299 | 32189 ft | 420 kts | 220° |
| 2026-05-07 14:00 | 30.03350 | 119.76966 | 32155 ft | 404 kts | 237° |
| 2026-05-07 14:00 | 30.00102 | 119.71716 | 32161 ft | 402 kts | 240° |
| 2026-05-07 14:01 | 29.96859 | 119.66452 | 32164 ft | 403 kts | 239° |
| 2026-05-07 14:01 | 29.93606 | 119.61190 | 32165 ft | 403 kts | 239° |
| 2026-05-07 14:02 | 29.90359 | 119.55926 | 32169 ft | 403 kts | 239° |
| 2026-05-07 14:02 | 29.87111 | 119.50661 | 32153 ft | 403 kts | 239° |
| 2026-05-07 14:03 | 29.83883 | 119.45430 | 32160 ft | 403 kts | 239° |
| 2026-05-07 14:03 | 29.80629 | 119.40175 | 32161 ft | 403 kts | 239° |
| 2026-05-07 14:04 | 29.77369 | 119.34915 | 32170 ft | 404 kts | 239° |
| 2026-05-07 14:04 | 29.74107 | 119.29651 | 32172 ft | 404 kts | 239° |
| 2026-05-07 14:05 | 29.70843 | 119.24385 | 32174 ft | 404 kts | 239° |
| 2026-05-07 14:05 | 29.67578 | 119.19132 | 32153 ft | 404 kts | 239° |
| 2026-05-07 14:06 | 29.64846 | 119.13581 | 32164 ft | 396 kts | 253° |
| 2026-05-07 14:06 | 29.63049 | 119.07604 | 32162 ft | 396 kts | 253° |
| 2026-05-07 14:07 | 29.61230 | 119.01639 | 32167 ft | 396 kts | 253° |
| 2026-05-07 14:07 | 29.59406 | 118.95673 | 32181 ft | 396 kts | 253° |
| 2026-05-07 14:08 | 29.57585 | 118.89711 | 32183 ft | 396 kts | 253° |
| 2026-05-07 14:08 | 29.55758 | 118.83747 | 32179 ft | 396 kts | 253° |
| 2026-05-07 14:09 | 29.53931 | 118.77784 | 32152 ft | 395 kts | 253° |
| 2026-05-07 14:09 | 29.52101 | 118.71832 | 32155 ft | 396 kts | 253° |
| 2026-05-07 14:10 | 29.50262 | 118.65871 | 32159 ft | 396 kts | 253° |
| 2026-05-07 14:10 | 29.48420 | 118.59909 | 32160 ft | 396 kts | 253° |
| 2026-05-07 14:11 | 29.46579 | 118.53938 | 32163 ft | 397 kts | 253° |
| 2026-05-07 14:11 | 29.44699 | 118.47980 | 32166 ft | 398 kts | 252° |
| 2026-05-07 14:12 | 29.42645 | 118.42133 | 32168 ft | 398 kts | 250° |
| 2026-05-07 14:12 | 29.40506 | 118.36273 | 32176 ft | 398 kts | 251° |
| 2026-05-07 14:13 | 29.38391 | 118.30409 | 32140 ft | 398 kts | 251° |
| 2026-05-07 14:13 | 29.36297 | 118.24535 | 32147 ft | 398 kts | 251° |
| 2026-05-07 14:14 | 29.34205 | 118.18646 | 32147 ft | 399 kts | 251° |
| 2026-05-07 14:14 | 29.32103 | 118.12754 | 32151 ft | 400 kts | 251° |
| 2026-05-07 14:15 | 29.29994 | 118.06862 | 32159 ft | 399 kts | 251° |
| 2026-05-07 14:15 | 29.27881 | 118.00979 | 32166 ft | 399 kts | 251° |
| 2026-05-07 14:16 | 29.25765 | 117.95107 | 32160 ft | 398 kts | 251° |
| 2026-05-07 14:16 | 29.23654 | 117.89233 | 32134 ft | 399 kts | 250° |
| 2026-05-07 14:17 | 29.21892 | 117.84351 | 32131 ft | 399 kts | 250° |
| 2026-05-07 14:17 | 29.19771 | 117.78476 | 32128 ft | 399 kts | 250° |
| 2026-05-07 14:18 | 29.17649 | 117.72605 | 32132 ft | 400 kts | 250° |
| 2026-05-07 14:18 | 29.15517 | 117.66717 | 32127 ft | 400 kts | 250° |
| 2026-05-07 14:19 | 29.13383 | 117.60836 | 32128 ft | 401 kts | 250° |
| 2026-05-07 14:19 | 29.11243 | 117.54948 | 32130 ft | 401 kts | 250° |
| 2026-05-07 14:20 | 29.09108 | 117.49056 | 32136 ft | 401 kts | 250° |
| 2026-05-07 14:20 | 29.07001 | 117.43153 | 32121 ft | 401 kts | 250° |
| 2026-05-07 14:21 | 29.04898 | 117.37242 | 32121 ft | 402 kts | 250° |
| 2026-05-07 14:21 | 29.02780 | 117.31326 | 32123 ft | 402 kts | 250° |
| 2026-05-07 14:22 | 29.00308 | 117.24448 | 32125 ft | 403 kts | 250° |
| 2026-05-07 14:22 | 28.98562 | 117.19512 | 32130 ft | 403 kts | 250° |
| 2026-05-07 14:23 | 28.96468 | 117.13573 | 32139 ft | 403 kts | 250° |
| 2026-05-07 14:23 | 28.94364 | 117.07628 | 32153 ft | 404 kts | 250° |
| 2026-05-07 14:24 | 28.92257 | 117.01687 | 32146 ft | 404 kts | 250° |
| 2026-05-07 14:24 | 28.90150 | 116.95753 | 32121 ft | 404 kts | 250° |
| 2026-05-07 14:25 | 28.88037 | 116.89813 | 32115 ft | 404 kts | 250° |
| 2026-05-07 14:25 | 28.85915 | 116.83866 | 32127 ft | 405 kts | 250° |
| 2026-05-07 14:26 | 28.83787 | 116.77915 | 32131 ft | 405 kts | 250° |
| 2026-05-07 14:26 | 28.81657 | 116.71964 | 32134 ft | 405 kts | 250° |
| 2026-05-07 14:27 | 28.79526 | 116.66018 | 32132 ft | 405 kts | 250° |
| 2026-05-07 14:27 | 28.77392 | 116.60076 | 32132 ft | 405 kts | 250° |
| 2026-05-07 14:28 | 28.75263 | 116.54144 | 32113 ft | 404 kts | 250° |
| 2026-05-07 14:28 | 28.73126 | 116.48212 | 32117 ft | 405 kts | 249° |
| 2026-05-07 14:29 | 28.70988 | 116.42285 | 32118 ft | 405 kts | 249° |
| 2026-05-07 14:29 | 28.68845 | 116.36350 | 32130 ft | 405 kts | 249° |
| 2026-05-07 14:30 | 28.66694 | 116.30424 | 32118 ft | 405 kts | 249° |
| 2026-05-07 14:30 | 28.64541 | 116.24490 | 32134 ft | 405 kts | 249° |
| 2026-05-07 14:31 | 28.62388 | 116.18563 | 32136 ft | 405 kts | 249° |
| 2026-05-07 14:31 | 28.60233 | 116.12637 | 32144 ft | 405 kts | 249° |
| 2026-05-07 14:32 | 28.58071 | 116.06712 | 32147 ft | 405 kts | 249° |
| 2026-05-07 14:32 | 28.55915 | 116.00789 | 32148 ft | 405 kts | 249° |
| 2026-05-07 14:33 | 28.53778 | 115.94917 | 32146 ft | 404 kts | 251° |
| 2026-05-07 14:33 | 28.52506 | 115.88725 | 32147 ft | 402 kts | 261° |
| 2026-05-07 14:34 | 28.51553 | 115.82461 | 32149 ft | 402 kts | 261° |
| 2026-05-07 14:34 | 28.50600 | 115.76193 | 32149 ft | 402 kts | 261° |
| 2026-05-07 14:35 | 28.49634 | 115.69927 | 32150 ft | 402 kts | 260° |
| 2026-05-07 14:35 | 28.48663 | 115.63667 | 32166 ft | 402 kts | 260° |
| 2026-05-07 14:36 | 28.47750 | 115.57398 | 32156 ft | 402 kts | 261° |
| 2026-05-07 14:36 | 28.46902 | 115.51122 | 32162 ft | 402 kts | 262° |
| 2026-05-07 14:37 | 28.46050 | 115.44846 | 32158 ft | 402 kts | 261° |
| 2026-05-07 14:37 | 28.45179 | 115.38567 | 32025 ft | 403 kts | 261° |
| 2026-05-07 14:37 | 28.44739 | 115.35417 | 31782 ft | 404 kts | 261° |
| 2026-05-07 14:38 | 28.44297 | 115.32266 | 31552 ft | 404 kts | 261° |
| 2026-05-07 14:38 | 28.43854 | 115.29112 | 31315 ft | 405 kts | 261° |
| 2026-05-07 14:38 | 28.43408 | 115.25951 | 31082 ft | 405 kts | 261° |
| 2026-05-07 14:38 | 28.42961 | 115.22789 | 30852 ft | 405 kts | 261° |
| 2026-05-07 14:39 | 28.42515 | 115.19640 | 30614 ft | 404 kts | 261° |
| 2026-05-07 14:39 | 28.42066 | 115.16495 | 30384 ft | 402 kts | 261° |
| 2026-05-07 14:39 | 28.41616 | 115.13361 | 30170 ft | 401 kts | 261° |
| 2026-05-07 14:39 | 28.41170 | 115.10238 | 29907 ft | 400 kts | 261° |
| 2026-05-07 14:40 | 28.40726 | 115.07117 | 29636 ft | 399 kts | 261° |
| 2026-05-07 14:40 | 28.40284 | 115.04010 | 29375 ft | 398 kts | 261° |
| 2026-05-07 14:40 | 28.39841 | 115.00913 | 29116 ft | 397 kts | 261° |
| 2026-05-07 14:40 | 28.39407 | 114.97867 | 28859 ft | 395 kts | 261° |
| 2026-05-07 14:41 | 28.38969 | 114.94792 | 28597 ft | 394 kts | 261° |
| 2026-05-07 14:41 | 28.38532 | 114.91729 | 28340 ft | 393 kts | 261° |
| 2026-05-07 14:41 | 28.38093 | 114.88672 | 28089 ft | 392 kts | 261° |
| 2026-05-07 14:41 | 28.37654 | 114.85628 | 27835 ft | 391 kts | 261° |
| 2026-05-07 14:42 | 28.37214 | 114.82586 | 27588 ft | 390 kts | 261° |
| 2026-05-07 14:42 | 28.36775 | 114.79558 | 27342 ft | 389 kts | 261° |
| 2026-05-07 14:42 | 28.36336 | 114.76532 | 27093 ft | 388 kts | 261° |
| 2026-05-07 14:42 | 28.35898 | 114.73518 | 26852 ft | 387 kts | 261° |
| 2026-05-07 14:43 | 28.35462 | 114.70512 | 26575 ft | 386 kts | 261° |
| 2026-05-07 14:43 | 28.35027 | 114.67514 | 26123 ft | 384 kts | 261° |
| 2026-05-07 14:43 | 28.34590 | 114.64534 | 25681 ft | 382 kts | 261° |
| 2026-05-07 14:43 | 28.34155 | 114.61571 | 25238 ft | 380 kts | 261° |
| 2026-05-07 14:44 | 28.33721 | 114.58614 | 24806 ft | 380 kts | 261° |
| 2026-05-07 14:44 | 28.33288 | 114.55661 | 24387 ft | 379 kts | 262° |
| 2026-05-07 14:44 | 28.32857 | 114.52715 | 23966 ft | 378 kts | 262° |
| 2026-05-07 14:44 | 28.32428 | 114.49778 | 23542 ft | 376 kts | 262° |
| 2026-05-07 14:45 | 28.31998 | 114.46852 | 23050 ft | 375 kts | 262° |
| 2026-05-07 14:45 | 28.31569 | 114.43944 | 22559 ft | 373 kts | 261° |
| 2026-05-07 14:45 | 28.31142 | 114.41053 | 22075 ft | 371 kts | 261° |
| 2026-05-07 14:45 | 28.30736 | 114.38174 | 21613 ft | 368 kts | 264° |
| 2026-05-07 14:46 | 28.30649 | 114.35285 | 21147 ft | 365 kts | 272° |
| 2026-05-07 14:46 | 28.30747 | 114.32421 | 20691 ft | 362 kts | 272° |
| 2026-05-07 14:46 | 28.30838 | 114.29571 | 20242 ft | 360 kts | 272° |
| 2026-05-07 14:46 | 28.30926 | 114.26736 | 19791 ft | 359 kts | 272° |
| 2026-05-07 14:47 | 28.31012 | 114.23913 | 19362 ft | 357 kts | 272° |
| 2026-05-07 14:47 | 28.31096 | 114.21104 | 18933 ft | 356 kts | 272° |
| 2026-05-07 14:47 | 28.31180 | 114.18341 | 18512 ft | 354 kts | 272° |
| 2026-05-07 14:47 | 28.31264 | 114.15555 | 18049 ft | 353 kts | 271° |
| 2026-05-07 14:48 | 28.31346 | 114.12779 | 17569 ft | 353 kts | 272° |
| 2026-05-07 14:48 | 28.31427 | 114.09995 | 17084 ft | 352 kts | 272° |
| 2026-05-07 14:48 | 28.31475 | 114.07228 | 16607 ft | 348 kts | 268° |
| 2026-05-07 14:48 | 28.31182 | 114.04569 | 16138 ft | 333 kts | 257° |
| 2026-05-07 14:49 | 28.30653 | 114.02070 | 15680 ft | 319 kts | 257° |
| 2026-05-07 14:49 | 28.30138 | 113.99667 | 15231 ft | 308 kts | 256° |
| 2026-05-07 14:49 | 28.29637 | 113.97337 | 14781 ft | 301 kts | 256° |
| 2026-05-07 14:49 | 28.29143 | 113.95030 | 14353 ft | 303 kts | 256° |
| 2026-05-07 14:50 | 28.28644 | 113.92688 | 13924 ft | 308 kts | 256° |
| 2026-05-07 14:50 | 28.28132 | 113.90297 | 13434 ft | 314 kts | 256° |
| 2026-05-07 14:50 | 28.27617 | 113.87878 | 12953 ft | 317 kts | 256° |
| 2026-05-07 14:50 | 28.27107 | 113.85475 | 12530 ft | 307 kts | 256° |
| 2026-05-07 14:51 | 28.26616 | 113.83173 | 12187 ft | 295 kts | 256° |
| 2026-05-07 14:51 | 28.26135 | 113.80929 | 11840 ft | 291 kts | 256° |
| 2026-05-07 14:51 | 28.25660 | 113.78719 | 11501 ft | 288 kts | 256° |
| 2026-05-07 14:51 | 28.25060 | 113.76556 | 11170 ft | 287 kts | 245° |
| 2026-05-07 14:52 | 28.24015 | 113.74642 | 10844 ft | 287 kts | 231° |
| 2026-05-07 14:52 | 28.22565 | 113.73093 | 10546 ft | 288 kts | 216° |
| 2026-05-07 14:52 | 28.20790 | 113.72003 | 10314 ft | 293 kts | 201° |
| 2026-05-07 14:52 | 28.18809 | 113.71472 | 10083 ft | 294 kts | 186° |
| 2026-05-07 14:53 | 28.16764 | 113.71321 | 9850 ft | 295 kts | 184° |
| 2026-05-07 14:53 | 28.14718 | 113.71177 | 9589 ft | 294 kts | 184° |
| 2026-05-07 14:53 | 28.12679 | 113.71033 | 9323 ft | 293 kts | 184° |
| 2026-05-07 14:53 | 28.10651 | 113.70872 | 9073 ft | 292 kts | 185° |
| 2026-05-07 14:54 | 28.08627 | 113.70689 | 8821 ft | 291 kts | 185° |
| 2026-05-07 14:54 | 28.06613 | 113.70492 | 8574 ft | 290 kts | 187° |
| 2026-05-07 14:54 | 28.04681 | 113.69893 | 8322 ft | 289 kts | 205° |
| 2026-05-07 14:54 | 28.03011 | 113.68648 | 8077 ft | 288 kts | 223° |
| 2026-05-07 14:55 | 28.01756 | 113.66904 | 7834 ft | 286 kts | 241° |
| 2026-05-07 14:55 | 28.01034 | 113.64810 | 7586 ft | 286 kts | 259° |
| 2026-05-07 14:55 | 28.00846 | 113.62578 | 7352 ft | 286 kts | 268° |
| 2026-05-07 14:55 | 28.00746 | 113.60332 | 7116 ft | 285 kts | 267° |
| 2026-05-07 14:56 | 28.00641 | 113.58097 | 6880 ft | 285 kts | 267° |
| 2026-05-07 14:56 | 28.00534 | 113.55861 | 6645 ft | 284 kts | 267° |
| 2026-05-07 14:56 | 28.00427 | 113.53627 | 6408 ft | 284 kts | 267° |
| 2026-05-07 14:56 | 28.00201 | 113.51409 | 6163 ft | 285 kts | 256° |
| 2026-05-07 14:57 | 27.99553 | 113.49292 | 5904 ft | 285 kts | 247° |
| 2026-05-07 14:57 | 27.98811 | 113.47234 | 5654 ft | 280 kts | 247° |
| 2026-05-07 14:57 | 27.98085 | 113.45209 | 5454 ft | 275 kts | 247° |
| 2026-05-07 14:57 | 27.97372 | 113.43219 | 5257 ft | 270 kts | 248° |
| 2026-05-07 14:58 | 27.96674 | 113.41273 | 5058 ft | 264 kts | 248° |
| 2026-05-07 14:58 | 27.95990 | 113.39364 | 4864 ft | 259 kts | 248° |
| 2026-05-07 14:58 | 27.95332 | 113.37523 | 4671 ft | 253 kts | 249° |
| 2026-05-07 14:58 | 27.94892 | 113.35636 | 4468 ft | 245 kts | 266° |
| 2026-05-07 14:59 | 27.94800 | 113.33734 | 4269 ft | 239 kts | 269° |
| 2026-05-07 14:59 | 27.94718 | 113.31881 | 4074 ft | 233 kts | 269° |
| 2026-05-07 14:59 | 27.94635 | 113.30064 | 3880 ft | 230 kts | 269° |
| 2026-05-07 14:59 | 27.94605 | 113.28262 | 3680 ft | 228 kts | 280° |
| 2026-05-07 15:00 | 27.95015 | 113.26562 | 3485 ft | 222 kts | 301° |
| 2026-05-07 15:00 | 27.95864 | 113.25160 | 3286 ft | 212 kts | 320° |
| 2026-05-07 15:00 | 27.97000 | 113.24183 | 3097 ft | 200 kts | 339° |
| 2026-05-07 15:00 | 27.98255 | 113.23676 | 3002 ft | 184 kts | 355° |
| 2026-05-07 15:01 | 27.99469 | 113.23554 | 2978 ft | 167 kts | 1° |
| 2026-05-07 15:01 | 28.00600 | 113.23484 | 3007 ft | 160 kts | 2° |
| 2026-05-07 15:01 | 28.01706 | 113.23416 | 2993 ft | 158 kts | 2° |
| 2026-05-07 15:01 | 28.02803 | 113.23350 | 2936 ft | 158 kts | 1° |
| 2026-05-07 15:02 | 28.03891 | 113.23283 | 2790 ft | 156 kts | 1° |
| 2026-05-07 15:02 | 28.04948 | 113.23218 | 2624 ft | 145 kts | 1° |
| 2026-05-07 15:02 | 28.05922 | 113.23158 | 2426 ft | 137 kts | 1° |
| 2026-05-07 15:02 | 28.06862 | 113.23101 | 2246 ft | 135 kts | 1° |
| 2026-05-07 15:03 | 28.07480 | 113.23063 | 2133 ft | 133 kts | 1° |
| 2026-05-07 15:03 | 28.08708 | 113.22988 | 1907 ft | 133 kts | 1° |
| 2026-05-07 15:03 | 28.09317 | 113.22951 | 1783 ft | 132 kts | 1° |
| 2026-05-07 15:03 | 28.10236 | 113.22895 | 1611 ft | 132 kts | 0° |
| 2026-05-07 15:04 | 28.11460 | 113.22820 | 1381 ft | 131 kts | 359° |
| 2026-05-07 15:04 | 28.12064 | 113.22783 | 1264 ft | 132 kts | 359° |
| 2026-05-07 15:04 | 28.12982 | 113.22727 | 1099 ft | 133 kts | 358° |
| 2026-05-07 15:04 | 28.13906 | 113.22671 | 911 ft | 132 kts | 356° |
| 2026-05-07 15:05 | 28.14827 | 113.22616 | 717 ft | 133 kts | 356° |
| 2026-05-07 15:05 | 28.15740 | 113.22563 | 568 ft | 130 kts | 356° |
| 2026-05-07 15:05 | 28.16646 | 113.22504 | 421 ft | 132 kts | 356° |
| 2026-05-07 15:05 | 28.17568 | 113.22447 | 236 ft | 132 kts | 356° |
| 2026-05-07 15:06 | 28.18379 | 113.22398 | 218 ft | 97 kts | 356° |
| 2026-05-07 15:06 | 28.18878 | 113.22368 | 216 ft | 48 kts | 357° |
| 2026-05-07 15:06 | 28.19161 | 113.22350 | 215 ft | 36 kts | 357° |
| 2026-05-07 15:06 | 28.19389 | 113.22337 | 218 ft | 23 kts | 355° |
| 2026-05-07 15:07 | 28.19529 | 113.22288 | 215 ft | 12 kts | 332° |
| 2026-05-07 15:07 | 28.19603 | 113.22241 | 215 ft | 13 kts | 330° |
| 2026-05-07 15:07 | 28.19691 | 113.22183 | 223 ft | 16 kts | 329° |
| 2026-05-07 15:07 | 28.19775 | 113.22131 | 215 ft | 11 kts | 336° |
| 2026-05-07 15:08 | 28.19833 | 113.22116 | 215 ft | 9 kts | 357° |
| 2026-05-07 15:08 | 28.19866 | 113.22114 | 215 ft | 4 kts | 357° |
| 2026-05-07 15:08 | 28.19899 | 113.22112 | 217 ft | 6 kts | 356° |
| 2026-05-07 15:08 | 28.19954 | 113.22108 | 215 ft | 10 kts | 357° |
| 2026-05-07 15:09 | 28.20029 | 113.22104 | 224 ft | 9 kts | 357° |
| 2026-05-07 15:09 | 28.20040 | 113.22103 | 215 ft | 2 kts | 356° |
| 2026-05-07 15:09 | 28.20061 | 113.22097 | 215 ft | 4 kts | 336° |
| 2026-05-07 15:09 | 28.20077 | 113.22059 | 215 ft | 7 kts | 274° |
| 2026-05-07 15:10 | 28.20075 | 113.22023 | 215 ft | 2 kts | 267° |
| 2026-05-07 15:10 | 28.20075 | 113.22020 | 215 ft | 0 kts | 266° |
| 2026-05-07 15:10 | 28.20075 | 113.22019 | 215 ft | 1 kts | 266° |
| 2026-05-07 15:11 | 28.20074 | 113.22001 | 215 ft | 4 kts | 266° |
| 2026-05-07 15:11 | 28.20072 | 113.21955 | 215 ft | 8 kts | 266° |
| 2026-05-07 15:11 | 28.20068 | 113.21882 | 215 ft | 10 kts | 266° |
| 2026-05-07 15:11 | 28.20065 | 113.21820 | 214 ft | 9 kts | 266° |
| 2026-05-07 15:12 | 28.20062 | 113.21762 | 214 ft | 7 kts | 265° |
| 2026-05-07 15:12 | 28.20023 | 113.21723 | 220 ft | 8 kts | 191° |
| 2026-05-07 15:12 | 28.19953 | 113.21725 | 214 ft | 12 kts | 177° |
| 2026-05-07 15:12 | 28.19858 | 113.21731 | 218 ft | 16 kts | 177° |
| 2026-05-07 15:13 | 28.19742 | 113.21738 | 218 ft | 18 kts | 176° |
| 2026-05-07 15:13 | 28.19612 | 113.21746 | 219 ft | 20 kts | 177° |
| 2026-05-07 15:13 | 28.19481 | 113.21755 | 219 ft | 17 kts | 176° |
| 2026-05-07 15:13 | 28.19373 | 113.21761 | 217 ft | 16 kts | 177° |
| 2026-05-07 15:14 | 28.19272 | 113.21767 | 217 ft | 12 kts | 177° |
| 2026-05-07 15:14 | 28.19193 | 113.21772 | 216 ft | 8 kts | 179° |
| 2026-05-07 15:14 | 28.19160 | 113.21737 | 221 ft | 7 kts | 256° |
| 2026-05-07 15:14 | 28.19156 | 113.21671 | 214 ft | 10 kts | 267° |
| 2026-05-07 15:15 | 28.19153 | 113.21583 | 214 ft | 12 kts | 267° |
| 2026-05-07 15:15 | 28.19150 | 113.21524 | 214 ft | 5 kts | 267° |
| 2026-05-07 15:15 | 28.19155 | 113.21496 | 214 ft | 1 kts | 304° |
| 2026-05-07 15:15 | 28.19168 | 113.21490 | 217 ft | 3 kts | 346° |
| 2026-05-07 15:16 | 28.19196 | 113.21488 | 214 ft | 4 kts | 357° |
| 2026-05-07 15:16 | 28.19205 | 113.21488 | 218 ft | 0 kts | 357° |